createdAt,value
2019-05-03T00:02:27.472Z,19.45
2019-05-03T00:04:59.683Z,19.45
2019-05-03T00:07:28.926Z,17.02
2019-05-03T00:09:58.175Z,21.45
2019-05-03T00:12:27.275Z,20.88
2019-05-03T00:15:02.611Z,22.07
2019-05-03T00:17:32.482Z,20.88
2019-05-03T00:20:02.303Z,23.57
2019-05-03T00:22:32.355Z,22.58
2019-05-03T00:25:05.873Z,23.67
2019-05-03T00:27:32.568Z,24.40
2019-05-03T00:30:02.795Z,23.00
2019-05-03T00:32:32.220Z,24.43
2019-05-03T00:35:03.289Z,20.08
2019-05-03T00:37:42.768Z,21.60
2019-05-03T00:40:16.807Z,20.32
2019-05-03T00:42:45.903Z,24.02
2019-05-03T00:45:15.142Z,22.22
2019-05-03T00:47:44.231Z,20.02
2019-05-03T00:50:13.451Z,19.92
2019-05-03T00:52:42.570Z,22.17
2019-05-03T00:55:16.942Z,21.07
2019-05-03T00:57:42.530Z,23.02
2019-05-03T01:00:12.403Z,20.60
2019-05-03T01:02:42.418Z,23.77
2019-05-03T01:05:12.022Z,22.93
2019-05-03T01:07:42.239Z,22.35
2019-05-03T01:10:13.412Z,20.77
2019-05-03T01:12:42.487Z,22.58
2019-05-03T01:15:13.461Z,23.07
2019-05-03T01:17:42.576Z,21.02
2019-05-03T01:20:12.013Z,22.70
2019-05-03T01:22:42.507Z,21.48
2019-05-03T01:25:12.138Z,24.37
2019-05-03T01:27:42.736Z,22.50
2019-05-03T01:30:12.712Z,25.92
2019-05-03T01:32:41.890Z,25.02
2019-05-03T01:35:12.302Z,20.92
2019-05-03T01:37:42.461Z,20.95
2019-05-03T01:40:12.590Z,19.80
2019-05-03T01:42:42.606Z,19.37
2019-05-03T01:45:12.100Z,19.65
2019-05-03T01:47:48.844Z,18.45
2019-05-03T01:50:28.830Z,24.07
2019-05-03T01:52:59.586Z,20.72
2019-05-03T01:55:46.896Z,22.73
2019-05-03T01:58:16.407Z,19.37
2019-05-03T02:00:45.562Z,17.65
2019-05-03T02:03:16.651Z,19.25
2019-05-03T02:05:47.395Z,21.15
2019-05-03T02:08:16.509Z,19.70
2019-05-03T02:10:45.715Z,20.90
2019-05-03T02:13:14.859Z,19.77
2019-05-03T02:15:43.940Z,20.92
2019-05-03T02:18:15.263Z,20.25
2019-05-03T02:20:44.708Z,26.15
2019-05-03T02:23:13.823Z,21.48
2019-05-03T02:25:55.403Z,19.45
2019-05-03T02:28:13.679Z,20.30
2019-05-03T02:30:44.020Z,19.40
2019-05-03T02:33:14.018Z,21.93
2019-05-03T02:35:43.234Z,19.50
2019-05-03T02:38:13.306Z,18.75
2019-05-03T02:40:43.273Z,18.32
2019-05-03T02:43:25.989Z,20.08
2019-05-03T02:46:05.851Z,20.60
2019-05-03T02:48:37.155Z,20.55
2019-05-03T02:51:06.730Z,18.56
2019-05-03T02:53:36.251Z,20.40
2019-05-03T02:56:15.065Z,17.35
2019-05-03T02:58:36.173Z,21.80
2019-05-03T03:01:06.727Z,18.27
2019-05-03T03:03:36.761Z,18.00
2019-05-03T03:06:06.998Z,18.50
2019-05-03T03:08:37.850Z,20.27
2019-05-03T03:11:08.922Z,20.57
2019-05-03T03:13:38.990Z,19.40
2019-05-03T03:16:10.076Z,21.85
2019-05-03T03:18:41.010Z,21.95
2019-05-03T03:21:20.051Z,20.02
2019-05-03T03:24:09.623Z,20.12
2019-05-03T03:26:43.087Z,20.23
2019-05-03T03:29:12.481Z,18.77
2019-05-03T03:32:20.089Z,22.58
2019-05-03T03:35:01.798Z,23.98
2019-05-03T03:37:26.184Z,21.23
2019-05-03T03:39:56.102Z,21.00
2019-05-03T03:42:25.931Z,26.07
2019-05-03T03:44:57.435Z,24.67
2019-05-03T03:47:29.846Z,25.15
2019-05-03T03:49:59.695Z,22.13
2019-05-03T03:52:31.849Z,23.55
2019-05-03T03:55:06.184Z,24.12
2019-05-03T03:57:35.733Z,26.90
2019-05-03T04:00:08.969Z,25.92
2019-05-03T04:05:08.344Z,24.20
2019-05-03T04:07:38.702Z,21.85
2019-05-03T04:10:08.431Z,24.57
2019-05-03T04:12:38.957Z,24.80
2019-05-03T04:15:26.562Z,23.35
2019-05-03T04:18:12.661Z,24.35
2019-05-03T04:20:41.869Z,21.73
2019-05-03T04:23:11.134Z,23.77
2019-05-03T04:25:41.084Z,20.72
2019-05-03T04:28:10.256Z,22.40
2019-05-03T04:30:39.493Z,23.52
2019-05-03T04:33:08.582Z,23.95
2019-05-03T04:35:37.700Z,29.55
2019-05-03T04:38:07.078Z,27.17
2019-05-03T04:40:36.234Z,24.92
2019-05-03T04:43:06.031Z,30.72
2019-05-03T04:45:36.699Z,25.85
2019-05-03T04:48:06.661Z,23.12
2019-05-03T04:50:36.695Z,24.12
2019-05-03T04:53:06.187Z,29.55
2019-05-03T04:55:36.307Z,27.90
2019-05-03T04:58:05.693Z,24.23
2019-05-03T05:00:35.842Z,24.30
2019-05-03T05:03:05.924Z,22.27
2019-05-03T05:05:36.331Z,24.70
2019-05-03T05:08:06.044Z,27.52
2019-05-03T05:10:36.416Z,27.48
2019-05-03T05:13:06.257Z,27.48
2019-05-03T05:15:35.548Z,23.40
2019-05-03T05:18:06.712Z,28.17
2019-05-03T05:20:45.275Z,24.80
2019-05-03T05:23:14.765Z,26.48
2019-05-03T05:25:55.015Z,25.72
2019-05-03T05:28:25.760Z,29.57
2019-05-03T05:30:54.838Z,25.60
2019-05-03T05:33:25.197Z,28.77
2019-05-03T05:35:54.804Z,31.48
2019-05-03T05:38:25.624Z,26.48
2019-05-03T05:40:55.492Z,29.82
2019-05-03T05:43:25.526Z,28.87
2019-05-03T05:45:56.306Z,25.45
2019-05-03T05:48:34.827Z,29.80
2019-05-03T05:51:04.436Z,27.73
2019-05-03T05:53:35.732Z,27.93
2019-05-03T05:56:08.915Z,29.57
2019-05-03T05:58:39.790Z,29.37
2019-05-03T06:01:24.865Z,32.58
2019-05-03T06:03:55.020Z,27.32
2019-05-03T06:06:25.604Z,29.43
2019-05-03T06:09:08.212Z,28.95
2019-05-03T06:11:38.828Z,28.73
2019-05-03T06:14:12.553Z,26.60
2019-05-03T06:16:52.316Z,27.48
2019-05-03T06:19:25.593Z,22.70
2019-05-03T06:24:40.828Z,30.23
2019-05-03T06:27:11.434Z,26.70
2019-05-03T06:29:41.040Z,25.32
2019-05-03T06:32:11.935Z,25.75
2019-05-03T06:34:40.974Z,28.57
2019-05-03T06:37:14.796Z,25.37
2019-05-03T06:39:45.404Z,25.45
2019-05-03T06:42:19.003Z,30.65
2019-05-03T06:44:45.605Z,22.15
2019-05-03T06:47:15.001Z,25.25
2019-05-03T06:49:48.167Z,30.70
2019-05-03T06:52:14.885Z,27.30
2019-05-03T06:54:44.932Z,29.20
2019-05-03T06:57:16.339Z,27.85
2019-05-03T06:59:49.926Z,25.40
2019-05-03T07:02:20.730Z,27.02
2019-05-03T07:05:05.079Z,28.62
2019-05-03T07:07:41.462Z,22.65
2019-05-03T07:10:12.237Z,28.15
2019-05-03T07:12:59.239Z,31.97
2019-05-03T07:15:29.026Z,24.55
2019-05-03T07:17:58.127Z,19.92
2019-05-03T07:20:27.105Z,24.65
2019-05-03T07:22:56.329Z,21.68
2019-05-03T07:25:25.863Z,20.55
2019-05-03T07:27:55.694Z,21.80
2019-05-03T07:30:25.293Z,22.77
2019-05-03T07:32:58.422Z,24.18
2019-05-03T07:35:27.456Z,23.32
2019-05-03T07:37:56.413Z,20.85
2019-05-03T07:40:25.585Z,18.80
2019-05-03T07:42:55.414Z,23.87
2019-05-03T07:45:25.448Z,21.48
2019-05-03T07:47:55.943Z,21.37
2019-05-03T07:50:26.004Z,20.85
2019-05-03T07:52:55.804Z,26.45
2019-05-03T07:55:45.524Z,21.05
2019-05-03T07:58:16.490Z,20.68
2019-05-03T08:00:45.798Z,22.13
2019-05-03T08:03:15.451Z,19.85
2019-05-03T08:05:45.442Z,20.95
2019-05-03T08:08:15.080Z,18.87
2019-05-03T08:10:45.033Z,25.65
2019-05-03T08:13:15.056Z,20.17
2019-05-03T08:15:45.129Z,21.97
2019-05-03T08:18:15.295Z,20.25
2019-05-03T08:20:45.389Z,21.52
2019-05-03T08:23:26.723Z,19.52
2019-05-03T08:25:45.025Z,16.00
2019-05-03T08:28:14.755Z,18.32
2019-05-03T08:30:54.916Z,22.67
2019-05-03T08:33:41.783Z,15.20
2019-05-03T08:36:10.796Z,15.38
2019-05-03T08:38:39.776Z,16.40
2019-05-03T08:41:10.377Z,14.25
2019-05-03T08:43:39.348Z,12.60
2019-05-03T08:46:08.318Z,16.60
2019-05-03T08:48:37.287Z,12.63
2019-05-03T08:51:07.040Z,10.32
2019-05-03T08:53:36.641Z,10.18
2019-05-03T08:56:06.578Z,11.45
2019-05-03T08:58:35.544Z,11.10
2019-05-03T09:01:05.577Z,11.30
2019-05-03T09:03:37.960Z,10.82
2019-05-03T09:06:06.243Z,12.52
2019-05-03T09:08:35.515Z,12.80
2019-05-03T09:11:06.349Z,14.25
2019-05-03T09:13:37.018Z,11.40
2019-05-03T09:16:06.518Z,10.22
2019-05-03T09:18:35.522Z,12.28
2019-05-03T09:21:05.144Z,8.05
2019-05-03T09:23:35.671Z,12.13
2019-05-03T09:26:05.204Z,12.25
2019-05-03T09:28:34.904Z,13.78
2019-05-03T09:31:04.664Z,12.05
2019-05-03T09:33:35.537Z,7.65
2019-05-03T09:36:05.340Z,10.75
2019-05-03T09:38:35.083Z,11.18
2019-05-03T09:41:05.216Z,9.35
2019-05-03T09:43:35.679Z,9.18
2019-05-03T09:46:05.198Z,14.95
2019-05-03T09:48:34.778Z,12.65
2019-05-03T09:51:05.155Z,12.35
2019-05-03T09:53:36.107Z,11.03
2019-05-03T09:56:05.201Z,15.05
2019-05-03T09:58:37.748Z,11.50
2019-05-03T10:01:06.268Z,9.13
2019-05-03T10:03:36.533Z,14.03
2019-05-03T10:06:06.419Z,15.02
2019-05-03T10:08:35.828Z,14.68
2019-05-03T10:11:11.873Z,13.70
2019-05-03T10:13:41.956Z,12.68
2019-05-03T10:16:11.458Z,13.60
2019-05-03T10:18:40.497Z,12.23
2019-05-03T10:21:09.449Z,12.58
2019-05-03T10:23:39.465Z,13.15
2019-05-03T10:26:09.178Z,14.03
2019-05-03T10:28:38.217Z,12.43
2019-05-03T10:31:07.896Z,11.40
2019-05-03T10:33:41.365Z,10.90
2019-05-03T10:36:10.431Z,15.78
2019-05-03T10:38:39.460Z,16.90
2019-05-03T10:41:08.499Z,14.68
2019-05-03T10:43:37.480Z,13.03
2019-05-03T10:46:06.875Z,17.12
2019-05-03T10:48:35.876Z,13.40
2019-05-03T10:51:05.180Z,15.13
2019-05-03T10:53:35.849Z,16.02
2019-05-03T10:56:22.776Z,16.70
2019-05-03T10:59:06.321Z,17.62
2019-05-03T11:01:46.550Z,15.75
2019-05-03T11:04:15.578Z,16.85
2019-05-03T11:06:45.725Z,15.28
2019-05-03T11:09:15.403Z,14.13
2019-05-03T11:11:45.387Z,13.50
2019-05-03T11:14:15.041Z,15.08
2019-05-03T11:16:46.086Z,12.85
2019-05-03T11:19:15.609Z,9.40
2019-05-03T11:21:45.565Z,9.43
2019-05-03T11:24:14.958Z,10.53
2019-05-03T11:26:45.744Z,11.30
2019-05-03T11:29:15.770Z,10.95
2019-05-03T11:31:59.244Z,11.43
2019-05-03T11:34:29.905Z,11.17
2019-05-03T11:37:16.757Z,10.00
2019-05-03T11:39:45.775Z,11.80
2019-05-03T11:42:15.309Z,8.50
2019-05-03T11:44:45.478Z,9.30
2019-05-03T11:47:15.042Z,9.25
2019-05-03T11:49:45.465Z,11.40
2019-05-03T11:52:15.874Z,8.85
2019-05-03T11:54:45.523Z,11.97
2019-05-03T11:57:16.206Z,6.42
2019-05-03T11:59:45.347Z,7.97
2019-05-03T12:02:31.311Z,7.58
2019-05-03T12:05:02.105Z,9.90
2019-05-03T12:07:39.766Z,10.75
2019-05-03T12:10:17.747Z,8.50
2019-05-03T12:12:44.684Z,6.70
2019-05-03T12:15:15.744Z,8.13
2019-05-03T12:17:54.441Z,7.08
2019-05-03T12:20:18.711Z,10.03
2019-05-03T12:22:48.517Z,8.43
2019-05-03T12:25:18.831Z,8.08
2019-05-03T12:27:48.419Z,13.48
2019-05-03T12:30:18.119Z,9.78
2019-05-03T12:32:47.186Z,10.72
2019-05-03T12:35:16.206Z,11.30
2019-05-03T12:37:45.186Z,9.23
2019-05-03T12:40:15.138Z,10.25
2019-05-03T12:42:45.417Z,10.98
2019-05-03T12:45:15.347Z,9.08
2019-05-03T12:47:45.376Z,10.85
2019-05-03T12:50:15.748Z,8.93
2019-05-03T12:52:50.252Z,9.93
2019-05-03T12:55:15.899Z,8.80
2019-05-03T12:57:45.730Z,7.97
2019-05-03T13:00:26.851Z,9.33
2019-05-03T13:03:00.637Z,14.15
2019-05-03T13:08:18.057Z,10.63
2019-05-03T13:10:47.013Z,9.08
2019-05-03T13:13:16.395Z,11.55
2019-05-03T13:15:45.379Z,15.90
2019-05-03T13:18:15.682Z,9.05
2019-05-03T13:20:45.443Z,9.83
2019-05-03T13:23:14.563Z,9.78
2019-05-03T13:25:44.741Z,12.82
2019-05-03T13:28:15.314Z,9.48
2019-05-03T13:30:45.239Z,12.55
2019-05-03T13:33:15.125Z,10.20
2019-05-03T13:35:44.772Z,13.00
2019-05-03T13:38:14.153Z,9.30
2019-05-03T13:40:45.194Z,12.13
2019-05-03T13:43:15.001Z,10.08
2019-05-03T13:45:44.997Z,12.28
2019-05-03T13:48:15.565Z,13.95
2019-05-03T13:50:44.890Z,13.98
2019-05-03T13:53:16.178Z,13.00
2019-05-03T13:55:45.258Z,8.63
2019-05-03T13:58:14.813Z,12.33
2019-05-03T14:00:45.307Z,12.35
2019-05-03T14:03:15.241Z,12.35
2019-05-03T14:05:44.719Z,12.93
2019-05-03T14:08:15.705Z,11.45
2019-05-03T14:10:45.496Z,11.38
2019-05-03T14:13:15.025Z,11.60
2019-05-03T14:15:45.335Z,12.43
2019-05-03T14:18:16.108Z,12.75
2019-05-03T14:20:46.776Z,8.90
2019-05-03T14:23:15.757Z,6.67
2019-05-03T14:25:44.795Z,10.80
2019-05-03T14:28:14.576Z,12.23
2019-05-03T14:30:45.527Z,10.05
2019-05-03T14:33:14.915Z,8.38
2019-05-03T14:35:45.196Z,12.93
2019-05-03T14:38:15.110Z,12.98
2019-05-03T14:40:44.875Z,10.80
2019-05-03T14:43:15.473Z,8.28
2019-05-03T14:45:44.923Z,11.00
2019-05-03T14:48:15.239Z,10.63
2019-05-03T14:50:45.553Z,11.57
2019-05-03T14:53:15.029Z,9.15
2019-05-03T14:55:48.352Z,12.63
2019-05-03T15:00:57.844Z,12.50
2019-05-03T15:03:28.476Z,13.13
2019-05-03T15:05:58.334Z,13.98
2019-05-03T15:08:27.994Z,16.23
2019-05-03T15:10:56.950Z,13.22
2019-05-03T15:13:26.012Z,13.20
2019-05-03T15:15:55.054Z,14.20
2019-05-03T15:18:25.608Z,12.37
2019-05-03T15:20:55.170Z,14.73
2019-05-03T15:23:25.431Z,12.35
2019-05-03T15:25:54.847Z,13.20
2019-05-03T15:28:25.022Z,10.05
2019-05-03T15:30:55.281Z,13.50
2019-05-03T15:33:24.594Z,14.83
2019-05-03T15:35:55.297Z,12.33
2019-05-03T15:38:24.481Z,13.65
2019-05-03T15:40:54.789Z,14.33
2019-05-03T15:43:28.684Z,17.07
2019-05-03T15:46:01.464Z,13.75
2019-05-03T15:48:32.384Z,17.67
2019-05-03T15:51:06.753Z,15.58
2019-05-03T15:53:35.799Z,12.00
2019-05-03T15:56:05.392Z,14.65
2019-05-03T15:58:34.554Z,12.20
2019-05-03T16:01:04.714Z,15.85
2019-05-03T16:03:35.717Z,14.00
2019-05-03T16:06:05.053Z,15.58
2019-05-03T16:08:34.090Z,15.05
2019-05-03T16:11:03.119Z,12.70
2019-05-03T16:13:32.176Z,13.62
2019-05-03T16:16:01.187Z,15.00
2019-05-03T16:18:30.195Z,15.83
2019-05-03T16:20:59.220Z,14.75
2019-05-03T16:23:28.220Z,14.03
2019-05-03T16:25:57.270Z,14.95
2019-05-03T16:28:27.930Z,14.85
2019-05-03T16:30:58.769Z,16.90
2019-05-03T16:33:28.345Z,15.20
2019-05-03T16:35:57.760Z,13.60
2019-05-03T16:38:26.740Z,15.25
2019-05-03T16:40:55.773Z,17.65
2019-05-03T16:43:25.663Z,19.20
2019-05-03T16:45:55.225Z,13.40
2019-05-03T16:48:24.821Z,18.65
2019-05-03T16:50:53.981Z,17.67
2019-05-03T16:53:23.221Z,15.88
2019-05-03T16:55:52.284Z,11.35
2019-05-03T16:58:21.268Z,14.78
2019-05-03T17:00:50.328Z,17.40
2019-05-03T17:03:21.009Z,16.55
2019-05-03T17:05:52.010Z,14.35
2019-05-03T17:08:22.634Z,12.13
2019-05-03T17:10:57.081Z,18.65
2019-05-03T17:13:26.171Z,18.23
2019-05-03T17:15:55.397Z,17.25
2019-05-03T17:18:24.725Z,15.43
2019-05-03T17:20:54.781Z,17.37
2019-05-03T17:23:24.636Z,16.75
2019-05-03T17:25:54.056Z,17.60
2019-05-03T17:28:24.771Z,17.35
2019-05-03T17:30:55.269Z,18.77
2019-05-03T17:33:25.330Z,16.52
2019-05-03T17:35:54.681Z,16.30
2019-05-03T17:38:23.910Z,17.80
2019-05-03T17:40:54.950Z,13.75
2019-05-03T17:43:28.491Z,17.85
2019-05-03T17:45:59.146Z,14.65
2019-05-03T17:48:28.193Z,20.25
2019-05-03T17:50:57.262Z,20.72
2019-05-03T17:53:30.545Z,22.30
2019-05-03T17:56:17.393Z,17.30
2019-05-03T17:58:55.116Z,23.38
2019-05-03T18:01:44.480Z,18.90
2019-05-03T18:04:17.535Z,19.57
2019-05-03T18:07:06.171Z,17.87
2019-05-03T18:09:36.860Z,18.50
2019-05-03T18:12:06.576Z,17.40
2019-05-03T18:14:35.549Z,18.40
2019-05-03T18:17:05.794Z,15.18
2019-05-03T18:19:35.013Z,19.45
2019-05-03T18:22:05.233Z,15.13
2019-05-03T18:24:35.213Z,12.33
2019-05-03T18:27:04.905Z,17.12
2019-05-03T18:29:34.626Z,16.95
2019-05-03T18:32:05.502Z,18.52
2019-05-03T18:34:34.788Z,17.95
2019-05-03T18:37:04.760Z,20.02
2019-05-03T18:39:34.663Z,15.75
2019-05-03T18:42:05.670Z,20.60
2019-05-03T18:44:42.361Z,18.02
2019-05-03T18:47:15.884Z,20.43
2019-05-03T18:49:44.959Z,24.87
2019-05-03T18:52:14.944Z,20.90
2019-05-03T18:54:44.525Z,31.27
2019-05-03T18:57:15.519Z,29.82
2019-05-03T18:59:44.997Z,23.70
2019-05-03T19:02:14.936Z,26.65
2019-05-03T19:04:51.409Z,25.62
2019-05-03T19:07:37.168Z,17.92
2019-05-03T19:10:15.393Z,19.77
2019-05-03T19:12:46.699Z,17.42
2019-05-03T19:15:15.740Z,16.87
2019-05-03T19:17:49.057Z,16.62
2019-05-03T19:20:19.223Z,16.20
2019-05-03T19:22:48.247Z,20.17
2019-05-03T19:25:17.501Z,14.90
2019-05-03T19:27:46.538Z,16.23
2019-05-03T19:30:16.346Z,19.67
2019-05-03T19:32:45.399Z,18.80
2019-05-03T19:35:15.749Z,19.90
2019-05-03T19:37:46.641Z,20.30
2019-05-03T19:40:16.065Z,16.73
2019-05-03T19:42:45.038Z,20.72
2019-05-03T19:45:15.324Z,21.07
2019-05-03T19:47:44.853Z,17.30
2019-05-03T19:50:15.695Z,22.17
2019-05-03T19:52:55.547Z,17.77
2019-05-03T19:55:24.658Z,19.77
2019-05-03T19:57:54.872Z,16.32
2019-05-03T20:00:26.002Z,19.80
2019-05-03T20:03:11.681Z,22.60
2019-05-03T20:05:48.151Z,20.12
2019-05-03T20:08:27.391Z,19.12
2019-05-03T20:11:14.819Z,18.50
2019-05-03T20:13:45.272Z,23.15
2019-05-03T20:16:15.471Z,18.13
2019-05-03T20:18:45.630Z,19.20
2019-05-03T20:21:15.179Z,20.95
2019-05-03T20:23:46.874Z,18.95
2019-05-03T20:26:15.333Z,19.07
2019-05-03T20:28:44.793Z,19.32
2019-05-03T20:31:14.649Z,20.87
2019-05-03T20:33:45.598Z,25.35
2019-05-03T20:36:14.323Z,21.93
2019-05-03T20:38:44.512Z,23.92
2019-05-03T20:41:14.816Z,21.03
2019-05-03T20:43:51.426Z,19.10
2019-05-03T20:46:22.056Z,22.23
2019-05-03T20:48:52.778Z,22.30
2019-05-03T20:51:22.065Z,22.17
2019-05-03T20:53:51.105Z,22.20
2019-05-03T20:56:20.095Z,28.40
2019-05-03T20:58:49.066Z,20.97
2019-05-03T21:01:18.218Z,24.80
2019-05-03T21:03:47.253Z,28.15
2019-05-03T21:06:16.273Z,23.00
2019-05-03T21:08:52.461Z,20.85
2019-05-03T21:11:15.924Z,19.37
2019-05-03T21:13:45.045Z,21.73
2019-05-03T21:16:15.713Z,23.73
2019-05-03T21:18:52.148Z,20.23
2019-05-03T21:21:24.745Z,18.82
2019-05-03T21:24:04.630Z,21.12
2019-05-03T21:26:34.566Z,21.57
2019-05-03T21:29:04.743Z,18.62
2019-05-03T21:31:35.212Z,19.23
2019-05-03T21:34:05.653Z,21.87
2019-05-03T21:36:35.066Z,26.80
2019-05-03T21:39:06.436Z,18.82
2019-05-03T21:41:37.972Z,19.17
2019-05-03T21:44:06.471Z,19.32
2019-05-03T21:46:39.906Z,19.23
2019-05-03T21:49:16.094Z,18.75
2019-05-03T21:51:45.143Z,20.27
2019-05-03T21:54:15.297Z,17.95
2019-05-03T21:56:44.875Z,17.70
2019-05-03T21:59:13.983Z,19.25
2019-05-03T22:01:45.589Z,14.90
2019-05-03T22:04:15.574Z,14.35
2019-05-03T22:06:45.098Z,15.83
2019-05-03T22:09:14.125Z,15.55
2019-05-03T22:11:44.683Z,16.82
2019-05-03T22:14:15.542Z,17.62
2019-05-03T22:17:04.598Z,17.02
2019-05-03T22:19:34.352Z,18.35
2019-05-03T22:22:05.479Z,18.00
2019-05-03T22:24:36.192Z,20.35
2019-05-03T22:27:07.093Z,20.92
2019-05-03T22:29:36.445Z,23.77
2019-05-03T22:32:05.527Z,19.48
2019-05-03T22:34:34.995Z,21.77
2019-05-03T22:37:04.753Z,21.23
2019-05-03T22:39:34.041Z,21.50
2019-05-03T22:42:04.497Z,23.07
2019-05-03T22:44:35.666Z,24.65
2019-05-03T22:47:05.488Z,25.55
2019-05-03T22:49:37.164Z,26.07
2019-05-03T22:52:05.491Z,18.62
2019-05-03T22:54:34.721Z,18.17
2019-05-03T22:57:04.839Z,22.42
2019-05-03T22:59:34.523Z,15.78
2019-05-03T23:02:03.757Z,17.10
2019-05-03T23:04:33.082Z,16.32
2019-05-03T23:07:02.080Z,18.40
2019-05-03T23:09:31.046Z,18.70
2019-05-03T23:12:00.370Z,14.75
2019-05-03T23:14:29.336Z,18.23
2019-05-03T23:16:58.297Z,16.15
2019-05-03T23:19:27.266Z,14.23
2019-05-03T23:22:12.555Z,17.48
2019-05-03T23:24:41.558Z,11.38
2019-05-03T23:27:10.512Z,10.30
2019-05-03T23:29:39.457Z,10.45
2019-05-03T23:32:08.493Z,9.65
2019-05-03T23:34:37.518Z,9.43
2019-05-03T23:37:06.502Z,7.33
2019-05-03T23:39:35.469Z,6.40
2019-05-03T23:42:05.207Z,6.45
2019-05-03T23:44:35.162Z,8.00
2019-05-03T23:47:14.914Z,6.53
2019-05-03T23:49:44.625Z,6.70
2019-05-03T23:52:27.406Z,7.85
2019-05-03T23:54:58.083Z,7.05
2019-05-03T23:57:27.040Z,6.28
2019-05-03T23:59:56.920Z,6.05
